Time;durP1;ratioP1;P1;durP2;ratioP2;P2;SDS_P1;SDS_P2;PMS_P1;PMS_P2;Temp;Humidity;BMP_temperature;BMP_pressure;BME280_temperature;BME280_humidity;BME280_pressure;Samples;Min_cycle;Max_cycle;Signal;HPM_P1;HPM_P2
2022/10/30 00:00:00;;;;;;;22.58;14.70;;;14.10;83.20;;;;;;5000972;28;20025;-63
2022/10/30 00:02:25;;;;;;;18.75;11.15;;;14.10;83.10;;;;;;5001346;28;20057;-63
2022/10/30 00:04:51;;;;;;;10.57;7.13;;;14.10;83.00;;;;;;5002565;28;20491;-64
2022/10/30 00:07:16;;;;;;;12.05;4.97;;;14.00;82.70;;;;;;5001567;28;20065;-61
2022/10/30 00:09:42;;;;;;;9.85;5.57;;;14.00;82.70;;;;;;4998045;28;20038;-63
2022/10/30 00:12:08;;;;;;;10.75;5.57;;;14.00;82.80;;;;;;4996935;28;20038;-64
2022/10/30 00:14:33;;;;;;;8.57;5.25;;;13.90;82.90;;;;;;5000074;28;20034;-63
2022/10/30 00:16:59;;;;;;;10.48;5.05;;;13.90;83.10;;;;;;5002865;28;20092;-63
2022/10/30 00:19:24;;;;;;;7.43;4.75;;;13.80;83.10;;;;;;5003228;28;20042;-64
2022/10/30 00:21:50;;;;;;;7.40;5.00;;;13.80;83.30;;;;;;5002254;28;20364;-63
2022/10/30 00:24:15;;;;;;;11.70;5.32;;;13.80;83.30;;;;;;5001668;28;20106;-64
2022/10/30 00:26:41;;;;;;;7.75;5.30;;;13.80;83.40;;;;;;5002221;28;20034;-63
2022/10/30 00:29:06;;;;;;;11.32;6.60;;;13.80;83.40;;;;;;5000638;28;20405;-63
2022/10/30 00:31:32;;;;;;;9.88;6.32;;;13.80;83.40;;;;;;5004100;28;20107;-63
2022/10/30 00:33:57;;;;;;;9.05;5.97;;;13.80;83.50;;;;;;5000778;28;20550;-64
2022/10/30 00:36:23;;;;;;;7.70;4.75;;;13.80;83.40;;;;;;5001300;28;20521;-64
2022/10/30 00:38:49;;;;;;;9.05;4.78;;;13.80;84.30;;;;;;5000459;28;20398;-63
2022/10/30 00:41:17;;;;;;;11.25;4.78;;;13.80;83.60;;;;;;5000886;28;20136;-64
2022/10/30 00:43:43;;;;;;;12.23;4.57;;;13.80;83.70;;;;;;5000565;28;20040;-63
2022/10/30 00:46:35;;;;;;;8.55;4.50;;;13.80;83.70;;;;;;5003130;28;20041;-63
2022/10/30 00:49:16;;;;;;;10.55;4.28;;;13.80;84.10;;;;;;5002660;28;20489;-63
2022/10/30 00:51:48;;;;;;;14.27;4.88;;;13.80;84.00;;;;;;4998681;28;20118;-63
2022/10/30 00:54:16;;;;;;;7.78;4.07;;;13.80;84.30;;;;;;4997655;28;20044;-63
2022/10/30 00:56:42;;;;;;;10.40;4.13;;;13.70;84.30;;;;;;4995211;28;20034;-64
2022/10/30 00:59:11;;;;;;;10.15;4.00;;;13.70;84.20;;;;;;5003437;28;20498;-63
2022/10/30 01:01:41;;;;;;;9.18;3.65;;;13.70;84.10;;;;;;4999129;28;20137;-63
2022/10/30 01:04:07;;;;;;;8.23;3.58;;;13.70;84.00;;;;;;4996117;28;20152;-64
2022/10/30 01:06:37;;;;;;;8.98;3.67;;;13.70;83.80;;;;;;4998946;28;20030;-63
2022/10/30 01:09:03;;;;;;;8.32;3.47;;;13.70;83.90;;;;;;4999870;28;20100;-63
2022/10/30 01:11:29;;;;;;;9.43;4.47;;;13.70;83.80;;;;;;4998468;28;20032;-63
2022/10/30 01:13:58;;;;;;;7.95;3.80;;;13.60;83.90;;;;;;5004557;28;20500;-63
2022/10/30 01:16:24;;;;;;;7.93;4.00;;;13.60;84.00;;;;;;5000317;28;20421;-63
2022/10/30 01:19:30;;;;;;;8.95;3.55;;;13.60;84.10;;;;;;5003231;28;20051;-64
2022/10/30 01:22:19;;;;;;;5.93;3.42;;;13.60;84.30;;;;;;4971343;28;20046;-64
2022/10/30 01:24:54;;;;;;;6.22;2.90;;;13.60;84.20;;;;;;4999802;28;20056;-62
2022/10/30 01:27:44;;;;;;;7.25;3.40;;;13.50;83.80;;;;;;5000815;28;20044;-64
2022/10/30 01:30:35;;;;;;;8.55;2.95;;;13.50;84.00;;;;;;5001240;28;20033;-63
2022/10/30 01:33:52;;;;;;;11.85;3.92;;;13.50;83.90;;;;;;4968961;28;20532;-64
2022/10/30 01:36:27;;;;;;;9.50;3.38;;;13.50;84.50;;;;;;4995061;28;20046;-63
2022/10/30 01:38:55;;;;;;;;;;;13.40;84.10;;;;;;4998929;28;20109;-63
2022/10/30 01:41:21;;;;;;;7.85;3.70;;;13.40;84.50;;;;;;4997941;28;19925;-63
2022/10/30 01:43:51;;;;;;;7.28;4.13;;;13.40;84.00;;;;;;4997975;28;20042;-63
2022/10/30 01:46:36;;;;;;;8.23;3.97;;;13.40;84.30;;;;;;5001077;28;20037;-63
2022/10/30 01:49:26;;;;;;;8.20;4.05;;;13.40;84.40;;;;;;4996720;28;20056;-64
2022/10/30 01:52:20;;;;;;;10.07;4.22;;;13.30;84.60;;;;;;4998298;28;20034;-62
2022/10/30 01:55:05;;;;;;;7.53;4.63;;;13.40;84.70;;;;;;4997580;28;20038;-64
2022/10/30 01:57:33;;;;;;;9.82;5.90;;;13.40;84.80;;;;;;4999992;28;20588;-64
2022/10/30 02:00:02;;;;;;;9.77;5.28;;;13.40;84.80;;;;;;4998316;28;20049;-61
2022/10/30 02:02:28;;;;;;;13.10;6.05;;;13.40;85.20;;;;;;5010220;28;20034;-63
2022/10/30 02:04:54;;;;;;;12.00;5.95;;;13.40;85.30;;;;;;4999717;28;20953;-64
2022/10/30 02:07:19;;;;;;;16.80;7.30;;;13.40;85.70;;;;;;4998225;28;20042;-64
2022/10/30 02:09:45;;;;;;;12.65;6.88;;;13.50;86.00;;;;;;4997279;28;20045;-63
2022/10/30 02:12:12;;;;;;;11.88;6.80;;;13.50;86.30;;;;;;4994329;28;20038;-64
2022/10/30 02:14:44;;;;;;;13.30;7.35;;;13.50;86.60;;;;;;5000526;28;20583;-63
2022/10/30 02:17:10;;;;;;;13.23;7.40;;;13.50;87.50;;;;;;5000240;28;20065;-64
2022/10/30 02:19:36;;;;;;;14.68;7.93;;;13.60;87.40;;;;;;4997693;28;20532;-64
2022/10/30 02:22:02;;;;;;;14.77;7.95;;;13.70;88.60;;;;;;4997930;28;20029;-63
2022/10/30 02:24:29;;;;;;;14.18;7.60;;;13.70;87.90;;;;;;4996248;28;20092;-63
2022/10/30 02:26:54;;;;;;;14.18;7.95;;;13.70;88.00;;;;;;4999930;28;20041;-62
2022/10/30 02:29:20;;;;;;;15.98;7.88;;;13.80;87.80;;;;;;4999602;28;20038;-62
2022/10/30 02:31:46;;;;;;;13.23;7.93;;;13.80;87.50;;;;;;4998166;28;20061;-63
2022/10/30 02:34:12;;;;;;;15.32;8.07;;;13.80;87.40;;;;;;4999135;28;20038;-62
2022/10/30 02:36:38;;;;;;;12.90;8.32;;;13.90;87.50;;;;;;4999925;28;20041;-63
2022/10/30 02:39:03;;;;;;;11.05;6.75;;;13.90;87.50;;;;;;5004625;28;20052;-63
2022/10/30 02:41:29;;;;;;;13.13;7.68;;;13.90;87.40;;;;;;5002627;28;20556;-63
2022/10/30 02:43:55;;;;;;;14.52;7.78;;;13.80;87.30;;;;;;4998160;28;20128;-63
2022/10/30 02:46:21;;;;;;;14.65;7.72;;;13.90;87.80;;;;;;4998976;28;20410;-63
2022/10/30 02:48:46;;;;;;;10.27;6.65;;;13.80;88.20;;;;;;4997865;28;20053;-61
2022/10/30 02:51:12;;;;;;;11.32;6.50;;;13.80;88.30;;;;;;4997360;28;20628;-60
2022/10/30 02:53:38;;;;;;;12.98;5.57;;;13.80;88.10;;;;;;4996931;28;20034;-63
2022/10/30 02:56:09;;;;;;;9.90;5.38;;;13.80;87.80;;;;;;4997092;28;20041;-62
2022/10/30 02:58:34;;;;;;;13.48;5.68;;;13.90;87.40;;;;;;4997720;28;20049;-64
2022/10/30 03:01:06;;;;;;;10.13;5.15;;;13.90;86.90;;;;;;4998265;28;20034;-63
2022/10/30 03:03:32;;;;;;;9.82;5.30;;;13.90;86.80;;;;;;4998965;28;20042;-63
2022/10/30 03:06:06;;;;;;;8.45;5.25;;;13.80;86.40;;;;;;4998001;28;20044;-62
2022/10/30 03:08:32;;;;;;;9.23;5.13;;;13.90;86.30;;;;;;5003200;28;20042;-61
2022/10/30 03:11:00;;;;;;;11.20;5.38;;;13.90;86.00;;;;;;4999331;28;20042;-62
2022/10/30 03:13:27;;;;;;;12.80;5.90;;;13.90;85.80;;;;;;5005607;28;20042;-63
2022/10/30 03:16:08;;;;;;;13.35;5.82;;;13.80;85.50;;;;;;5002605;28;20433;-63
2022/10/30 03:18:35;;;;;;;8.05;5.72;;;13.80;85.80;;;;;;5006555;28;20042;-63
2022/10/30 03:21:03;;;;;;;9.80;5.30;;;13.70;85.70;;;;;;5003596;28;20049;-63
2022/10/30 03:23:29;;;;;;;8.63;5.22;;;13.70;85.70;;;;;;5006218;28;20524;-63
2022/10/30 03:25:57;;;;;;;8.57;5.25;;;13.70;86.40;;;;;;5004422;28;20096;-63
2022/10/30 03:28:25;;;;;;;7.30;4.95;;;13.70;85.50;;;;;;5006847;28;20042;-63
2022/10/30 03:30:56;;;;;;;11.55;5.22;;;13.70;85.50;;;;;;5003190;28;20038;-63
2022/10/30 03:33:22;;;;;;;9.88;5.38;;;13.70;85.70;;;;;;5004980;28;20409;-64
2022/10/30 03:35:47;;;;;;;10.63;5.70;;;13.60;86.40;;;;;;5004018;28;20048;-64
2022/10/30 03:38:13;;;;;;;9.85;5.72;;;13.70;86.60;;;;;;5007460;28;20055;-63
2022/10/30 03:40:39;;;;;;;10.55;5.28;;;13.60;85.60;;;;;;5004146;28;20072;-62
2022/10/30 03:43:04;;;;;;;12.18;6.18;;;13.60;85.70;;;;;;5005945;28;20128;-63
2022/10/30 03:45:32;;;;;;;13.23;5.90;;;13.60;85.60;;;;;;5006097;28;20184;-63
2022/10/30 03:47:59;;;;;;;12.98;6.20;;;13.60;85.60;;;;;;5004729;28;20124;-61
2022/10/30 03:50:25;;;;;;;12.48;7.30;;;13.60;85.70;;;;;;5005230;28;22037;-63
2022/10/30 03:52:53;;;;;;;13.60;7.93;;;13.60;85.90;;;;;;5001394;28;20158;-63
2022/10/30 03:55:18;;;;;;;12.00;8.40;;;13.50;86.20;;;;;;5003316;28;21874;-62
2022/10/30 03:57:44;;;;;;;15.20;8.43;;;13.50;86.40;;;;;;5004264;28;20042;-63
2022/10/30 04:00:10;;;;;;;14.15;8.15;;;13.50;86.50;;;;;;5004083;28;20037;-63
2022/10/30 04:02:36;;;;;;;13.23;7.68;;;13.40;86.60;;;;;;5000253;28;20038;-63
2022/10/30 04:05:02;;;;;;;9.98;6.82;;;13.50;86.70;;;;;;5006615;28;20532;-63
2022/10/30 04:07:28;;;;;;;9.93;5.80;;;13.50;86.50;;;;;;5005819;28;20038;-63
2022/10/30 04:09:54;;;;;;;11.70;6.20;;;13.40;86.20;;;;;;5003950;28;20120;-63
2022/10/30 04:12:20;;;;;;;10.77;6.03;;;13.40;86.00;;;;;;4998937;28;20700;-63
2022/10/30 04:14:45;;;;;;;10.88;6.03;;;13.40;85.90;;;;;;5006691;28;20049;-63
2022/10/30 04:17:11;;;;;;;10.43;6.30;;;13.40;86.00;;;;;;5009369;28;20044;-63
2022/10/30 04:19:36;;;;;;;10.60;6.88;;;13.30;85.80;;;;;;5006480;28;20045;-63
2022/10/30 04:22:02;;;;;;;13.60;6.60;;;13.30;85.90;;;;;;5005349;28;20030;-63
2022/10/30 04:24:28;;;;;;;7.25;5.90;;;13.20;85.90;;;;;;5003743;28;20052;-61
2022/10/30 04:26:53;;;;;;;12.20;5.95;;;13.20;86.00;;;;;;5007083;28;20502;-63
2022/10/30 04:29:19;;;;;;;12.10;6.25;;;13.20;86.00;;;;;;5006193;28;20038;-63
2022/10/30 04:31:45;;;;;;;7.20;5.75;;;13.20;85.90;;;;;;5006296;28;20037;-63
2022/10/30 04:34:11;;;;;;;11.25;6.57;;;13.10;86.00;;;;;;5005816;28;20053;-64
2022/10/30 04:36:36;;;;;;;11.73;6.97;;;13.10;86.00;;;;;;5006249;28;20034;-63
2022/10/30 04:39:03;;;;;;;10.30;6.82;;;13.10;86.20;;;;;;5005506;28;20069;-63
2022/10/30 04:41:28;;;;;;;8.25;6.22;;;13.10;86.10;;;;;;5006201;28;20045;-63
2022/10/30 04:43:54;;;;;;;11.48;5.65;;;13.10;86.00;;;;;;5004227;28;20038;-63
2022/10/30 04:46:19;;;;;;;9.32;6.00;;;13.10;86.00;;;;;;5005833;28;20069;-64
2022/10/30 04:48:45;;;;;;;8.20;5.47;;;13.10;86.00;;;;;;5004061;28;20365;-63
2022/10/30 04:51:10;;;;;;;8.93;5.97;;;13.10;85.90;;;;;;5006112;28;20062;-63
2022/10/30 04:53:37;;;;;;;8.48;5.47;;;13.10;85.70;;;;;;5004214;28;20045;-63
2022/10/30 04:56:04;;;;;;;13.40;7.43;;;13.10;85.50;;;;;;5007584;28;20065;-63
2022/10/30 04:58:29;;;;;;;11.40;7.03;;;13.10;85.70;;;;;;5005698;28;20103;-63
2022/10/30 05:00:59;;;;;;;10.82;7.07;;;13.10;86.00;;;;;;5006598;28;20038;-63
2022/10/30 05:03:24;;;;;;;9.95;6.43;;;13.00;85.90;;;;;;5005455;28;20406;-61
2022/10/30 05:06:03;;;;;;;10.63;6.78;;;13.10;85.80;;;;;;5005203;28;20030;-63
2022/10/30 05:08:29;;;;;;;8.98;6.25;;;13.00;85.50;;;;;;5005251;28;20038;-61
2022/10/30 05:10:55;;;;;;;12.23;7.10;;;13.00;85.50;;;;;;5003933;28;21557;-63
2022/10/30 05:13:21;;;;;;;11.90;7.13;;;13.00;85.60;;;;;;5006353;28;20038;-62
2022/10/30 05:15:46;;;;;;;10.27;7.68;;;13.00;85.70;;;;;;5004120;28;20037;-64
2022/10/30 05:18:12;;;;;;;10.98;6.30;;;12.90;85.80;;;;;;5001435;28;20040;-61
2022/10/30 05:20:38;;;;;;;12.20;7.00;;;12.90;85.80;;;;;;4998306;28;20448;-64
2022/10/30 05:23:03;;;;;;;12.88;7.38;;;12.90;85.80;;;;;;5001353;28;20046;-63
2022/10/30 05:25:29;;;;;;;8.15;6.88;;;12.90;85.70;;;;;;4999397;28;20042;-64
2022/10/30 05:28:02;;;;;;;10.48;7.50;;;12.90;85.80;;;;;;5000685;28;20057;-63
2022/10/30 05:30:30;;;;;;;10.13;6.93;;;12.90;85.70;;;;;;4998046;28;20033;-62
2022/10/30 05:33:06;;;;;;;10.07;7.13;;;12.80;85.50;;;;;;4999571;28;20037;-64
2022/10/30 05:35:33;;;;;;;12.68;6.65;;;12.80;85.80;;;;;;4999025;28;20390;-62
2022/10/30 05:38:00;;;;;;;13.90;6.97;;;12.80;85.50;;;;;;4999724;28;20030;-63
2022/10/30 05:40:25;;;;;;;11.52;6.78;;;12.70;85.50;;;;;;4997704;28;20128;-61
2022/10/30 05:42:51;;;;;;;14.05;7.28;;;12.70;85.70;;;;;;5001627;28;20117;-61
2022/10/30 05:45:17;;;;;;;12.63;7.28;;;12.70;85.80;;;;;;4997933;28;20152;-62
2022/10/30 05:47:43;;;;;;;13.63;8.52;;;12.60;85.90;;;;;;5000601;28;20595;-61
2022/10/30 05:50:11;;;;;;;11.00;8.35;;;12.60;86.40;;;;;;5000121;28;20506;-63
2022/10/30 05:52:37;;;;;;;11.65;8.27;;;12.60;86.70;;;;;;4999963;28;20088;-63
2022/10/30 05:55:03;;;;;;;15.00;9.07;;;12.50;86.60;;;;;;5000058;28;20026;-61
2022/10/30 05:57:29;;;;;;;11.57;8.20;;;12.50;86.50;;;;;;4997642;28;20069;-61
2022/10/30 05:59:55;;;;;;;12.88;8.63;;;12.50;86.90;;;;;;5000347;28;20041;-64
2022/10/30 06:02:21;;;;;;;13.15;8.63;;;12.50;86.80;;;;;;5000552;28;20034;-64
2022/10/30 06:04:46;;;;;;;14.18;9.02;;;12.50;86.70;;;;;;5004948;28;20497;-62
2022/10/30 06:07:12;;;;;;;14.25;8.20;;;12.50;87.60;;;;;;5005765;28;20049;-62
2022/10/30 06:09:38;;;;;;;13.20;8.60;;;12.50;86.80;;;;;;5005870;28;20045;-63
2022/10/30 06:12:03;;;;;;;18.05;9.80;;;12.50;86.70;;;;;;4999137;28;20117;-63
2022/10/30 06:14:29;;;;;;;18.77;10.98;;;12.50;86.60;;;;;;4999618;28;20042;-63
2022/10/30 06:16:54;;;;;;;17.17;10.45;;;12.40;86.40;;;;;;5000293;28;20469;-61
2022/10/30 06:19:20;;;;;;;24.83;13.20;;;12.40;86.20;;;;;;5003564;28;20088;-61
2022/10/30 06:21:46;;;;;;;25.85;12.68;;;12.40;86.00;;;;;;5003050;28;20034;-62
2022/10/30 06:24:12;;;;;;;21.17;12.23;;;12.40;86.10;;;;;;5004478;28;20041;-62
2022/10/30 06:26:37;;;;;;;18.50;11.13;;;12.40;86.20;;;;;;5001222;28;20049;-62
2022/10/30 06:29:03;;;;;;;18.63;10.43;;;12.40;86.20;;;;;;4983483;28;20038;-62
2022/10/30 06:31:28;;;;;;;17.65;10.38;;;12.40;86.30;;;;;;4991040;28;20040;-63
2022/10/30 06:33:54;;;;;;;20.55;11.75;;;12.40;86.30;;;;;;4990468;28;20044;-61
2022/10/30 06:36:20;;;;;;;17.42;10.88;;;12.30;86.20;;;;;;4999482;28;20038;-63
2022/10/30 06:38:46;;;;;;;18.42;10.35;;;12.30;86.30;;;;;;4995108;28;20045;-62
2022/10/30 06:41:11;;;;;;;19.23;9.48;;;12.30;86.40;;;;;;4991425;28;20045;-63
2022/10/30 06:43:37;;;;;;;13.32;9.30;;;12.30;86.40;;;;;;4991870;28;20037;-62
2022/10/30 06:46:03;;;;;;;14.65;9.07;;;12.30;86.60;;;;;;4995386;28;20034;-64
2022/10/30 06:48:28;;;;;;;19.35;9.73;;;12.30;86.70;;;;;;4994679;28;20045;-62
2022/10/30 06:50:59;;;;;;;14.77;9.60;;;12.30;86.80;;;;;;4995649;28;20040;-61
2022/10/30 06:53:25;;;;;;;13.82;9.07;;;12.30;87.20;;;;;;4990843;28;20679;-59
2022/10/30 06:55:59;;;;;;;12.13;8.13;;;12.30;87.10;;;;;;4996676;28;20497;-62
2022/10/30 06:58:25;;;;;;;13.32;9.15;;;12.30;87.50;;;;;;4994408;28;21874;-63
2022/10/30 07:00:51;;;;;;;13.13;8.80;;;12.30;87.40;;;;;;4993769;28;20053;-63
2022/10/30 07:03:17;;;;;;;15.73;8.82;;;12.30;87.60;;;;;;4994360;28;20038;-61
2022/10/30 07:05:43;;;;;;;11.68;8.05;;;12.30;87.60;;;;;;4992368;28;20033;-63
2022/10/30 07:08:08;;;;;;;11.57;8.05;;;12.40;87.80;;;;;;5009501;28;20034;-62
2022/10/30 07:10:34;;;;;;;12.60;7.70;;;12.40;87.90;;;;;;4993873;28;20030;-62
2022/10/30 07:13:00;;;;;;;9.50;7.50;;;12.50;88.10;;;;;;4998547;28;20033;-63
2022/10/30 07:15:26;;;;;;;13.20;8.15;;;12.50;88.10;;;;;;4997584;28;20038;-62
2022/10/30 07:17:56;;;;;;;11.30;7.70;;;12.50;88.30;;;;;;5001261;28;20026;-63
2022/10/30 07:20:23;;;;;;;12.98;8.48;;;12.50;88.50;;;;;;5001741;28;20371;-62
2022/10/30 07:22:49;;;;;;;14.77;8.20;;;12.50;88.40;;;;;;5000633;28;20038;-62
2022/10/30 07:25:15;;;;;;;14.73;8.63;;;12.60;88.50;;;;;;4999025;28;20057;-62
2022/10/30 07:27:42;;;;;;;14.38;9.68;;;12.60;88.40;;;;;;4994832;28;20042;-63
2022/10/30 07:30:09;;;;;;;14.35;9.70;;;12.70;88.50;;;;;;4996160;28;20046;-62
2022/10/30 07:32:35;;;;;;;14.80;10.00;;;12.70;88.50;;;;;;5000193;28;20382;-63
2022/10/30 07:35:00;;;;;;;13.43;9.43;;;12.80;88.50;;;;;;4995004;28;20032;-63
2022/10/30 07:37:28;;;;;;;19.83;10.52;;;12.80;88.50;;;;;;5002519;28;20112;-62
2022/10/30 07:39:54;;;;;;;22.20;10.25;;;12.90;88.50;;;;;;5002820;28;20444;-62
2022/10/30 07:42:19;;;;;;;19.92;14.55;;;12.90;88.40;;;;;;4998250;28;20099;-62
2022/10/30 07:44:45;;;;;;;19.33;14.60;;;12.90;88.60;;;;;;5003083;28;20514;-60
2022/10/30 07:47:10;;;;;;;27.77;18.40;;;13.00;89.00;;;;;;5001165;28;20165;-61
2022/10/30 07:49:36;;;;;;;31.58;20.48;;;13.10;89.50;;;;;;4996893;28;20046;-60
2022/10/30 07:52:01;;;;;;;26.08;17.40;;;13.10;89.70;;;;;;4996633;28;20042;-59
2022/10/30 07:54:27;;;;;;;24.30;15.85;;;13.20;89.90;;;;;;5000060;28;20041;-59
2022/10/30 07:56:53;;;;;;;27.60;16.88;;;13.30;90.00;;;;;;4999883;28;20034;-59
2022/10/30 07:59:18;;;;;;;23.65;15.77;;;13.30;90.10;;;;;;5002497;28;20042;-61
2022/10/30 08:01:44;;;;;;;22.50;15.68;;;13.50;90.20;;;;;;5003253;28;20033;-61
2022/10/30 08:04:12;;;;;;;22.33;15.13;;;13.50;90.30;;;;;;4999603;28;20069;-61
2022/10/30 08:06:39;;;;;;;22.20;15.15;;;13.60;90.40;;;;;;5003967;28;20133;-61
2022/10/30 08:09:05;;;;;;;21.58;15.38;;;13.60;90.40;;;;;;4997185;28;20560;-62
2022/10/30 08:11:31;;;;;;;20.70;14.57;;;13.70;90.40;;;;;;4995909;28;20033;-61
2022/10/30 08:13:56;;;;;;;21.08;14.25;;;13.80;90.50;;;;;;5002118;28;20435;-61
2022/10/30 08:16:22;;;;;;;21.85;15.52;;;13.90;90.60;;;;;;5003936;28;20147;-61
2022/10/30 08:18:48;;;;;;;23.45;14.70;;;14.00;90.70;;;;;;5003660;28;20080;-59
2022/10/30 08:21:13;;;;;;;18.15;13.70;;;14.00;90.70;;;;;;4998101;28;20029;-61
2022/10/30 08:23:39;;;;;;;20.20;14.25;;;14.10;90.80;;;;;;5002029;28;20038;-61
2022/10/30 08:26:05;;;;;;;23.77;13.75;;;14.20;90.70;;;;;;5003469;28;20030;-60
2022/10/30 08:28:31;;;;;;;21.13;13.90;;;14.30;90.70;;;;;;4999934;28;20088;-62
2022/10/30 08:30:57;;;;;;;19.55;13.20;;;14.40;90.70;;;;;;4998726;28;20034;-62
2022/10/30 08:33:23;;;;;;;21.23;12.80;;;14.50;91.00;;;;;;5000765;28;20033;-62
2022/10/30 08:35:50;;;;;;;24.30;14.05;;;14.60;90.60;;;;;;5000959;28;20038;-62
2022/10/30 08:38:16;;;;;;;20.63;13.25;;;14.70;90.60;;;;;;5004308;28;20037;-60
2022/10/30 08:40:42;;;;;;;17.73;12.45;;;14.70;90.60;;;;;;4999180;28;20042;-62
2022/10/30 08:43:08;;;;;;;19.73;12.45;;;14.80;90.60;;;;;;5001699;28;20115;-62
2022/10/30 08:45:34;;;;;;;18.45;12.00;;;14.90;90.60;;;;;;4995499;28;20121;-62
2022/10/30 08:48:04;;;;;;;17.65;12.00;;;15.00;90.50;;;;;;4999649;28;20429;-62
2022/10/30 08:50:32;;;;;;;18.45;12.02;;;15.10;90.50;;;;;;5003230;28;20038;-61
2022/10/30 08:53:05;;;;;;;22.88;13.75;;;15.20;90.50;;;;;;5005648;28;20058;-62
2022/10/30 08:55:32;;;;;;;18.85;12.75;;;15.30;90.60;;;;;;5004685;28;20065;-62
2022/10/30 08:57:58;;;;;;;20.75;12.20;;;15.40;90.50;;;;;;5004490;28;20066;-62
2022/10/30 09:00:25;;;;;;;21.20;12.50;;;15.50;90.50;;;;;;4996522;28;20096;-62
2022/10/30 09:02:50;;;;;;;16.73;11.85;;;15.60;90.40;;;;;;4998840;28;20379;-61
2022/10/30 09:05:16;;;;;;;21.08;12.70;;;15.70;90.40;;;;;;5002679;28;20103;-62
2022/10/30 09:07:42;;;;;;;16.95;12.02;;;15.80;90.30;;;;;;4999716;28;20030;-62
2022/10/30 09:10:09;;;;;;;17.73;11.52;;;15.90;90.20;;;;;;5001798;28;20377;-62
2022/10/30 09:12:34;;;;;;;16.00;11.70;;;16.00;90.20;;;;;;4992769;28;20041;-62
2022/10/30 09:15:00;;;;;;;17.60;11.35;;;16.10;90.10;;;;;;5006236;28;20034;-62
2022/10/30 09:17:26;;;;;;;17.38;11.55;;;16.20;90.10;;;;;;5007688;28;20537;-61
2022/10/30 09:19:51;;;;;;;15.70;11.48;;;16.30;90.40;;;;;;5007914;28;20038;-62
2022/10/30 09:22:17;;;;;;;21.23;12.27;;;16.40;90.00;;;;;;5005222;28;20516;-62
2022/10/30 09:24:43;;;;;;;16.85;12.13;;;16.50;90.00;;;;;;5006656;28;20511;-62
2022/10/30 09:27:08;;;;;;;16.33;11.30;;;16.60;90.00;;;;;;5006017;28;20042;-61
2022/10/30 09:29:34;;;;;;;17.85;11.57;;;16.70;90.00;;;;;;5004769;28;20528;-62
2022/10/30 09:32:03;;;;;;;20.30;11.73;;;16.80;90.00;;;;;;5005680;28;20084;-61
2022/10/30 09:34:29;;;;;;;21.15;12.35;;;16.90;90.00;;;;;;5005319;28;20497;-62
2022/10/30 09:36:55;;;;;;;16.27;11.32;;;17.00;90.10;;;;;;5007254;28;20526;-62
2022/10/30 09:39:21;;;;;;;15.70;10.45;;;17.00;89.70;;;;;;5006288;28;20124;-62
2022/10/30 09:41:58;;;;;;;16.42;9.32;;;17.20;90.10;;;;;;5005381;28;20552;-63
2022/10/30 09:44:33;;;;;;;16.25;8.48;;;17.30;88.90;;;;;;5004121;28;20034;-62
2022/10/30 09:47:25;;;;;;;13.85;8.77;;;17.40;88.60;;;;;;5005008;28;20044;-61
2022/10/30 09:50:00;;;;;;;13.65;8.18;;;17.50;87.90;;;;;;5006800;28;20022;-63
2022/10/30 09:52:32;;;;;;;13.45;7.88;;;17.70;87.90;;;;;;5003902;28;20521;-62
2022/10/30 09:55:28;;;;;;;9.98;6.05;;;17.80;87.80;;;;;;5003060;28;20121;-62
2022/10/30 09:57:53;;;;;;;12.45;5.15;;;17.90;86.30;;;;;;5005450;28;20045;-60
2022/10/30 10:00:21;;;;;;;9.88;4.55;;;18.00;86.40;;;;;;5004293;28;20041;-63
2022/10/30 10:03:08;;;;;;;10.40;4.65;;;18.20;85.70;;;;;;5002870;28;20919;-63
2022/10/30 10:05:49;;;;;;;9.05;4.18;;;18.40;84.60;;;;;;5003695;28;20316;-62
2022/10/30 10:08:39;;;;;;;11.45;4.28;;;18.60;83.10;;;;;;5004417;28;20483;-62
2022/10/30 10:11:12;;;;;;;11.15;4.63;;;18.80;82.00;;;;;;4987540;28;20270;-62
2022/10/30 10:13:55;;;;;;;10.55;3.90;;;18.90;82.20;;;;;;5005218;28;20064;-62
2022/10/30 10:16:27;;;;;;;9.32;3.97;;;19.10;81.70;;;;;;5002753;28;20354;-63
2022/10/30 10:19:14;;;;;;;8.70;4.38;;;19.30;80.60;;;;;;5006664;28;20065;-62
2022/10/30 10:21:49;;;;;;;9.85;3.85;;;19.40;79.60;;;;;;5007017;28;20038;-62
2022/10/30 10:24:20;;;;;;;8.90;3.70;;;19.60;79.80;;;;;;5004683;28;20045;-62
2022/10/30 10:26:52;;;;;;;8.48;3.55;;;19.70;79.20;;;;;;5002244;28;20632;-63
2022/10/30 10:29:24;;;;;;;10.75;3.50;;;19.90;78.70;;;;;;5001561;28;20501;-62
2022/10/30 10:31:53;;;;;;;8.02;2.95;;;20.00;78.70;;;;;;5003417;28;20312;-63
2022/10/30 10:34:43;;;;;;;9.30;3.20;;;20.20;77.90;;;;;;5004730;28;20038;-62
2022/10/30 10:37:27;;;;;;;8.73;3.58;;;20.30;76.60;;;;;;5000734;28;20046;-62
2022/10/30 10:40:17;;;;;;;12.27;3.08;;;20.40;76.00;;;;;;5005771;28;20101;-61
2022/10/30 10:43:14;;;;;;;8.40;3.40;;;20.50;75.40;;;;;;5006677;28;20453;-62
2022/10/30 10:45:52;;;;;;;7.10;3.05;;;20.60;74.90;;;;;;5006898;28;20103;-63
2022/10/30 10:48:37;;;;;;;9.60;3.10;;;20.70;75.10;;;;;;5007462;28;20123;-63
2022/10/30 10:51:14;;;;;;;10.57;5.32;;;20.80;73.80;;;;;;5006839;28;20065;-63
2022/10/30 10:53:56;;;;;;;11.85;4.78;;;20.90;76.20;;;;;;5006655;28;20405;-62
2022/10/30 10:56:30;;;;;;;13.90;6.47;;;21.00;74.70;;;;;;5007330;28;20040;-61
2022/10/30 10:59:00;;;;;;;7.95;4.90;;;21.00;76.20;;;;;;5006118;28;20022;-63
2022/10/30 11:01:38;;;;;;;9.50;4.72;;;21.10;76.50;;;;;;5007108;28;20073;-62
2022/10/30 11:04:15;;;;;;;7.32;3.05;;;21.20;75.50;;;;;;5006521;28;20030;-63
2022/10/30 11:06:47;;;;;;;10.25;2.70;;;21.20;73.80;;;;;;5006820;28;20035;-63
2022/10/30 11:09:12;;;;;;;12.65;5.60;;;21.30;73.60;;;;;;4998725;28;20037;-62
2022/10/30 11:11:38;;;;;;;11.48;5.78;;;21.30;74.60;;;;;;5000135;28;20030;-63
2022/10/30 11:14:23;;;;;;;9.75;5.82;;;21.40;74.90;;;;;;5003558;28;20474;-62
2022/10/30 11:17:23;;;;;;;11.15;5.75;;;21.40;74.10;;;;;;5003358;28;20045;-63
2022/10/30 11:19:53;;;;;;;12.00;5.65;;;21.50;74.10;;;;;;5005945;28;20556;-63
2022/10/30 11:22:31;;;;;;;11.25;5.38;;;21.60;74.70;;;;;;5002755;28;20419;-62
2022/10/30 11:25:19;;;;;;;12.80;6.05;;;21.60;74.10;;;;;;5004447;28;20512;-64
2022/10/30 11:27:59;;;;;;;13.02;5.40;;;21.70;73.30;;;;;;5006034;28;20072;-62
2022/10/30 11:30:27;;;;;;;14.60;5.65;;;21.70;74.00;;;;;;5008207;28;20496;-62
2022/10/30 11:32:54;;;;;;;10.60;5.78;;;21.70;74.20;;;;;;5009765;28;20030;-62
2022/10/30 11:35:21;;;;;;;10.77;5.30;;;21.80;74.40;;;;;;5009360;28;20144;-63
2022/10/30 11:37:49;;;;;;;12.23;6.22;;;21.90;74.20;;;;;;5009418;28;20038;-62
2022/10/30 11:40:16;;;;;;;9.43;4.93;;;21.90;73.70;;;;;;5009586;28;20073;-63
2022/10/30 11:42:46;;;;;;;9.57;4.72;;;21.90;73.80;;;;;;5008635;28;20041;-63
2022/10/30 11:45:23;;;;;;;10.40;4.93;;;22.00;73.60;;;;;;5008593;28;20053;-63
2022/10/30 11:47:49;;;;;;;8.82;4.88;;;22.00;72.20;;;;;;5008615;28;20572;-63
2022/10/30 11:50:17;;;;;;;10.77;5.22;;;22.10;72.60;;;;;;5010077;28;20029;-63
2022/10/30 11:52:43;;;;;;;10.90;5.45;;;22.10;72.30;;;;;;5009008;28;20449;-62
2022/10/30 11:55:19;;;;;;;18.55;6.15;;;22.20;72.80;;;;;;5010175;28;20578;-63
2022/10/30 11:57:54;;;;;;;10.55;4.68;;;22.20;72.40;;;;;;5006486;28;20588;-62
2022/10/30 12:00:26;;;;;;;12.27;5.25;;;22.20;72.70;;;;;;5005713;28;20116;-63
2022/10/30 12:02:53;;;;;;;14.32;5.30;;;22.30;73.00;;;;;;5004965;28;20037;-62
2022/10/30 12:05:30;;;;;;;14.15;5.57;;;22.30;73.50;;;;;;5008093;28;20054;-63
2022/10/30 12:08:14;;;;;;;14.73;5.72;;;22.30;72.60;;;;;;5007276;28;20042;-63
2022/10/30 12:10:53;;;;;;;14.50;5.57;;;22.40;72.00;;;;;;5006334;28;20065;-63
2022/10/30 12:13:21;;;;;;;10.27;5.03;;;22.40;71.90;;;;;;5003953;28;20042;-62
2022/10/30 12:15:50;;;;;;;10.40;5.38;;;22.50;72.60;;;;;;5008455;28;20501;-62
2022/10/30 12:18:26;;;;;;;10.10;4.68;;;22.50;72.00;;;;;;5008639;28;20185;-63
2022/10/30 12:20:55;;;;;;;12.63;5.10;;;22.50;71.60;;;;;;5008466;28;20116;-63
2022/10/30 12:23:24;;;;;;;8.55;5.00;;;22.60;72.60;;;;;;5008590;28;20520;-63
2022/10/30 12:25:52;;;;;;;12.65;4.82;;;22.60;72.30;;;;;;5009815;28;20443;-61
2022/10/30 12:28:27;;;;;;;10.75;5.13;;;22.60;72.40;;;;;;5007636;28;20089;-63
2022/10/30 12:31:08;;;;;;;10.02;5.07;;;22.70;71.00;;;;;;5007417;28;20058;-61
2022/10/30 12:33:40;;;;;;;14.07;5.40;;;22.70;70.50;;;;;;5007950;28;20139;-63
2022/10/30 12:36:15;;;;;;;12.98;5.30;;;22.70;71.50;;;;;;5008396;28;20500;-63
2022/10/30 12:38:40;;;;;;;9.73;4.93;;;22.70;70.40;;;;;;5007719;28;20037;-63
2022/10/30 12:41:19;;;;;;;10.05;4.82;;;22.80;70.70;;;;;;5007597;28;20046;-63
2022/10/30 12:43:57;;;;;;;9.95;4.43;;;22.80;70.90;;;;;;5008070;28;21180;-63
2022/10/30 12:46:25;;;;;;;8.13;4.38;;;22.90;70.60;;;;;;5006354;28;20041;-63
2022/10/30 12:48:58;;;;;;;11.35;4.80;;;22.90;71.10;;;;;;5008445;28;20034;-63